sensor_id;sensor_type;location;lat;lon;timestamp;pressure;altitude;pressure_sealevel;temperature;humidity
22582;BME280;47125;48.542;9.052;2023-02-02T00:06:25;96692.44;;;5.00;77.90
22582;BME280;47125;48.542;9.052;2023-02-02T00:16:36;96692.06;;;5.03;78.02
22582;BME280;47125;48.542;9.052;2023-02-02T00:26:40;96694.81;;;5.10;77.58
22582;BME280;47125;48.542;9.052;2023-02-02T00:36:44;96693.91;;;5.03;78.18
22582;BME280;47125;48.542;9.052;2023-02-02T00:46:47;96678.59;;;4.98;79.13
22582;BME280;47125;48.542;9.052;2023-02-02T00:56:51;96685.22;;;5.09;78.34
22582;BME280;47125;48.542;9.052;2023-02-02T01:06:53;96686.06;;;4.94;78.80
22582;BME280;47125;48.542;9.052;2023-02-02T01:16:57;96687.84;;;5.09;77.84
22582;BME280;47125;48.542;9.052;2023-02-02T01:27:00;96689.69;;;5.08;78.00
22582;BME280;47125;48.542;9.052;2023-02-02T01:37:04;96694.09;;;5.01;78.54
22582;BME280;47125;48.542;9.052;2023-02-02T01:47:06;96697.00;;;5.06;78.89
22582;BME280;47125;48.542;9.052;2023-02-02T01:57:11;96700.09;;;5.10;79.39
22582;BME280;47125;48.542;9.052;2023-02-02T02:07:15;96692.91;;;5.04;79.24
22582;BME280;47125;48.542;9.052;2023-02-02T02:17:24;96684.59;;;5.07;79.32
22582;BME280;47125;48.542;9.052;2023-02-02T02:27:37;96665.81;;;5.02;79.72
22582;BME280;47125;48.542;9.052;2023-02-02T02:37:45;96677.94;;;4.96;80.45
22582;BME280;47125;48.542;9.052;2023-02-02T02:47:50;96659.34;;;4.89;80.58
22582;BME280;47125;48.542;9.052;2023-02-02T02:58:03;96661.34;;;4.87;80.91
22582;BME280;47125;48.542;9.052;2023-02-02T03:08:09;96670.66;;;4.83;81.56
22582;BME280;47125;48.542;9.052;2023-02-02T03:18:15;96671.09;;;4.87;81.33
22582;BME280;47125;48.542;9.052;2023-02-02T03:28:18;96664.72;;;4.81;81.87
22582;BME280;47125;48.542;9.052;2023-02-02T03:38:22;96661.16;;;4.89;81.22
22582;BME280;47125;48.542;9.052;2023-02-02T03:48:25;96665.19;;;4.85;81.58
22582;BME280;47125;48.542;9.052;2023-02-02T03:58:29;96670.22;;;4.80;82.18
22582;BME280;47125;48.542;9.052;2023-02-02T04:08:31;96684.53;;;4.85;82.22
22582;BME280;47125;48.542;9.052;2023-02-02T04:18:35;96695.75;;;4.87;83.04
22582;BME280;47125;48.542;9.052;2023-02-02T04:28:39;96720.00;;;4.91;83.03
22582;BME280;47125;48.542;9.052;2023-02-02T04:38:42;96712.06;;;4.91;82.64
22582;BME280;47125;48.542;9.052;2023-02-02T04:48:46;96702.13;;;4.93;83.04
22582;BME280;47125;48.542;9.052;2023-02-02T04:58:52;96705.88;;;4.84;82.98
22582;BME280;47125;48.542;9.052;2023-02-02T05:08:54;96713.81;;;4.84;83.61
22582;BME280;47125;48.542;9.052;2023-02-02T05:18:58;96712.72;;;4.78;83.47
22582;BME280;47125;48.542;9.052;2023-02-02T05:29:01;96718.94;;;4.85;83.33
22582;BME280;47125;48.542;9.052;2023-02-02T05:39:05;96729.31;;;4.87;83.35
22582;BME280;47125;48.542;9.052;2023-02-02T05:49:08;96733.25;;;4.91;83.28
22582;BME280;47125;48.542;9.052;2023-02-02T05:59:14;96739.53;;;4.90;83.62
22582;BME280;47125;48.542;9.052;2023-02-02T06:09:17;96735.78;;;4.99;84.06
22582;BME280;47125;48.542;9.052;2023-02-02T06:19:21;96750.41;;;4.95;85.14
22582;BME280;47125;48.542;9.052;2023-02-02T06:29:24;96767.28;;;4.94;84.71
22582;BME280;47125;48.542;9.052;2023-02-02T06:39:27;96779.22;;;4.90;85.65
22582;BME280;47125;48.542;9.052;2023-02-02T06:49:30;96775.22;;;4.94;86.77
22582;BME280;47125;48.542;9.052;2023-02-02T06:59:34;96786.38;;;4.89;86.87
22582;BME280;47125;48.542;9.052;2023-02-02T07:09:36;96775.69;;;4.97;85.81
22582;BME280;47125;48.542;9.052;2023-02-02T07:19:40;96783.72;;;5.04;85.87
22582;BME280;47125;48.542;9.052;2023-02-02T07:29:43;96787.56;;;5.02;85.65
22582;BME280;47125;48.542;9.052;2023-02-02T07:39:46;96791.38;;;5.14;84.74
22582;BME280;47125;48.542;9.052;2023-02-02T07:49:49;96805.25;;;5.16;84.59
22582;BME280;47125;48.542;9.052;2023-02-02T07:59:53;96819.31;;;5.16;84.37
22582;BME280;47125;48.542;9.052;2023-02-02T08:09:55;96814.84;;;5.17;84.67
22582;BME280;47125;48.542;9.052;2023-02-02T08:19:59;96814.75;;;5.25;84.49
22582;BME280;47125;48.542;9.052;2023-02-02T08:30:02;96811.91;;;5.12;85.43
22582;BME280;47125;48.542;9.052;2023-02-02T08:40:07;96802.88;;;5.21;85.55
22582;BME280;47125;48.542;9.052;2023-02-02T08:50:09;96824.16;;;5.27;85.44
22582;BME280;47125;48.542;9.052;2023-02-02T09:00:14;96842.78;;;5.34;84.35
22582;BME280;47125;48.542;9.052;2023-02-02T09:10:17;96866.34;;;5.43;83.88
22582;BME280;47125;48.542;9.052;2023-02-02T09:20:22;96890.25;;;5.50;82.46
22582;BME280;47125;48.542;9.052;2023-02-02T09:30:25;96887.22;;;5.53;83.00
22582;BME280;47125;48.542;9.052;2023-02-02T09:40:28;96906.22;;;5.56;84.00
22582;BME280;47125;48.542;9.052;2023-02-02T09:50:35;96916.81;;;5.56;86.26
22582;BME280;47125;48.542;9.052;2023-02-02T10:00:43;96921.41;;;5.63;87.96
22582;BME280;47125;48.542;9.052;2023-02-02T10:10:47;96927.34;;;5.65;89.20
22582;BME280;47125;48.542;9.052;2023-02-02T10:20:55;96936.56;;;5.54;90.04
22582;BME280;47125;48.542;9.052;2023-02-02T10:30:59;96925.69;;;5.64;89.54
22582;BME280;47125;48.542;9.052;2023-02-02T10:41:05;96915.28;;;5.62;89.81
22582;BME280;47125;48.542;9.052;2023-02-02T10:51:14;96919.94;;;5.60;90.19
22582;BME280;47125;48.542;9.052;2023-02-02T11:01:20;96929.19;;;5.64;88.88
22582;BME280;47125;48.542;9.052;2023-02-02T11:11:24;96928.34;;;5.78;88.92
22582;BME280;47125;48.542;9.052;2023-02-02T11:21:30;96929.19;;;5.64;88.41
22582;BME280;47125;48.542;9.052;2023-02-02T11:31:35;96925.06;;;5.76;87.67
22582;BME280;47125;48.542;9.052;2023-02-02T11:41:40;96931.16;;;5.62;87.42
22582;BME280;47125;48.542;9.052;2023-02-02T11:51:43;96925.69;;;5.64;88.57
22582;BME280;47125;48.542;9.052;2023-02-02T12:01:48;96929.53;;;5.76;87.66
22582;BME280;47125;48.542;9.052;2023-02-02T12:11:52;96933.72;;;5.85;87.48
22582;BME280;47125;48.542;9.052;2023-02-02T12:22:00;96911.34;;;5.87;88.61
22582;BME280;47125;48.542;9.052;2023-02-02T12:32:16;96908.22;;;5.84;89.21
22582;BME280;47125;48.542;9.052;2023-02-02T12:42:30;96907.50;;;5.90;89.39
22582;BME280;47125;48.542;9.052;2023-02-02T12:52:41;96900.19;;;5.92;87.66
22582;BME280;47125;48.542;9.052;2023-02-02T13:02:53;96914.22;;;6.07;86.76
22582;BME280;47125;48.542;9.052;2023-02-02T13:13:00;96913.19;;;6.23;84.97
22582;BME280;47125;48.542;9.052;2023-02-02T13:23:06;96904.41;;;6.22;85.02
22582;BME280;47125;48.542;9.052;2023-02-02T13:33:12;96919.94;;;6.25;84.92
22582;BME280;47125;48.542;9.052;2023-02-02T13:43:19;96937.63;;;6.18;84.39
22582;BME280;47125;48.542;9.052;2023-02-02T13:53:31;96952.59;;;6.26;83.93
22582;BME280;47125;48.542;9.052;2023-02-02T14:03:41;96961.97;;;6.07;84.33
22582;BME280;47125;48.542;9.052;2023-02-02T14:13:45;96970.72;;;6.22;83.18
22582;BME280;47125;48.542;9.052;2023-02-02T14:34:39;96978.28;;;6.61;80.70
22582;BME280;47125;48.542;9.052;2023-02-02T14:55:16;96986.47;;;6.59;80.58
22582;BME280;47125;48.542;9.052;2023-02-02T15:05:35;96993.88;;;6.49;80.44
22582;BME280;47125;48.542;9.052;2023-02-02T15:15:41;97005.22;;;6.58;80.62
22582;BME280;47125;48.542;9.052;2023-02-02T15:25:46;97010.81;;;6.63;80.05
22582;BME280;47125;48.542;9.052;2023-02-02T15:35:50;97017.84;;;6.56;79.87
22582;BME280;47125;48.542;9.052;2023-02-02T15:45:54;97018.53;;;6.43;80.30
22582;BME280;47125;48.542;9.052;2023-02-02T15:56:16;97018.53;;;6.29;81.17
22582;BME280;47125;48.542;9.052;2023-02-02T16:06:18;97024.59;;;6.23;81.44
22582;BME280;47125;48.542;9.052;2023-02-02T16:26:41;97076.19;;;6.20;81.58
22582;BME280;47125;48.542;9.052;2023-02-02T16:36:43;97096.88;;;6.25;81.53
22582;BME280;47125;48.542;9.052;2023-02-02T16:57:24;97140.47;;;6.22;82.06
22582;BME280;47125;48.542;9.052;2023-02-02T17:07:33;97151.38;;;6.27;82.25
22582;BME280;47125;48.542;9.052;2023-02-02T17:17:38;97174.16;;;6.22;82.35
22582;BME280;47125;48.542;9.052;2023-02-02T17:27:40;97190.69;;;6.24;82.23
22582;BME280;47125;48.542;9.052;2023-02-02T17:37:44;97198.19;;;6.20;82.70
22582;BME280;47125;48.542;9.052;2023-02-02T17:47:47;97214.38;;;6.25;82.62
22582;BME280;47125;48.542;9.052;2023-02-02T17:57:51;97233.06;;;6.32;82.70
22582;BME280;47125;48.542;9.052;2023-02-02T18:07:54;97210.81;;;6.18;83.19
22582;BME280;47125;48.542;9.052;2023-02-02T18:17:58;97224.72;;;6.20;83.29
22582;BME280;47125;48.542;9.052;2023-02-02T18:28:02;97224.97;;;6.25;83.15
22582;BME280;47125;48.542;9.052;2023-02-02T18:38:06;97240.47;;;6.22;83.78
22582;BME280;47125;48.542;9.052;2023-02-02T18:48:09;97223.97;;;6.12;84.86
22582;BME280;47125;48.542;9.052;2023-02-02T18:58:13;97217.91;;;6.03;84.79
22582;BME280;47125;48.542;9.052;2023-02-02T19:08:16;97231.69;;;5.98;85.02
22582;BME280;47125;48.542;9.052;2023-02-02T19:18:20;97225.25;;;5.93;85.00
22582;BME280;47125;48.542;9.052;2023-02-02T19:28:23;97237.56;;;5.86;85.15
22582;BME280;47125;48.542;9.052;2023-02-02T19:38:29;97216.94;;;5.73;84.71
22582;BME280;47125;48.542;9.052;2023-02-02T19:48:32;97220.16;;;5.83;84.27
22582;BME280;47125;48.542;9.052;2023-02-02T19:58:42;97256.03;;;5.71;84.25
22582;BME280;47125;48.542;9.052;2023-02-02T20:08:45;97257.53;;;5.74;83.79
22582;BME280;47125;48.542;9.052;2023-02-02T20:18:50;97249.03;;;5.78;83.33
22582;BME280;47125;48.542;9.052;2023-02-02T20:28:54;97232.72;;;5.67;83.26
22582;BME280;47125;48.542;9.052;2023-02-02T20:38:59;97231.41;;;5.63;83.15
22582;BME280;47125;48.542;9.052;2023-02-02T20:49:13;97232.88;;;5.96;81.83
22582;BME280;47125;48.542;9.052;2023-02-02T20:59:21;97230.44;;;5.64;82.79
22582;BME280;47125;48.542;9.052;2023-02-02T21:19:43;97248.44;;;5.68;81.92
22582;BME280;47125;48.542;9.052;2023-02-02T21:29:45;97252.47;;;5.64;82.89
22582;BME280;47125;48.542;9.052;2023-02-02T21:39:49;97249.38;;;5.52;82.93
22582;BME280;47125;48.542;9.052;2023-02-02T21:50:00;97253.38;;;5.48;83.78
22582;BME280;47125;48.542;9.052;2023-02-02T22:00:16;97250.78;;;5.40;83.97
22582;BME280;47125;48.542;9.052;2023-02-02T22:20:42;97277.84;;;5.59;83.71
22582;BME280;47125;48.542;9.052;2023-02-02T22:30:49;97272.81;;;5.64;83.27
22582;BME280;47125;48.542;9.052;2023-02-02T22:40:54;97259.56;;;5.64;83.29
22582;BME280;47125;48.542;9.052;2023-02-02T22:50:56;97269.19;;;5.65;83.78
22582;BME280;47125;48.542;9.052;2023-02-02T23:01:00;97271.34;;;5.61;83.94
22582;BME280;47125;48.542;9.052;2023-02-02T23:11:03;97263.19;;;5.71;83.92
22582;BME280;47125;48.542;9.052;2023-02-02T23:21:07;97266.28;;;5.74;84.24
22582;BME280;47125;48.542;9.052;2023-02-02T23:31:09;97262.16;;;5.72;84.31
22582;BME280;47125;48.542;9.052;2023-02-02T23:41:13;97282.38;;;5.73;84.43
22582;BME280;47125;48.542;9.052;2023-02-02T23:51:16;97282.03;;;5.76;84.29
